createdAt,value
2024-03-25T00:04:23.064Z,2.80
2024-03-25T00:09:30.348Z,3.10
2024-03-25T00:14:38.148Z,3.20
2024-03-25T00:19:46.771Z,3.00
2024-03-25T00:24:53.860Z,2.90
2024-03-25T00:30:01.153Z,2.70
2024-03-25T00:35:09.749Z,2.50
2024-03-25T00:40:16.482Z,2.70
2024-03-25T00:45:23.825Z,2.60
2024-03-25T00:50:30.903Z,2.40
2024-03-25T00:55:39.113Z,2.10
2024-03-25T01:00:46.044Z,2.00
2024-03-25T01:05:53.828Z,2.40
2024-03-25T01:11:01.123Z,2.20
2024-03-25T01:16:08.623Z,2.40
2024-03-25T01:21:16.439Z,2.30
2024-03-25T01:26:23.770Z,2.10
2024-03-25T01:31:30.687Z,2.20
2024-03-25T01:36:37.554Z,2.30
2024-03-25T01:41:44.329Z,2.50
2024-03-25T01:46:51.601Z,2.60
2024-03-25T01:52:00.576Z,2.20
2024-03-25T01:57:07.675Z,2.10
2024-03-25T02:02:16.154Z,1.90
2024-03-25T02:07:25.343Z,1.50
2024-03-25T02:12:33.901Z,1.60
2024-03-25T02:17:41.534Z,1.60
2024-03-25T02:22:49.260Z,1.50
2024-03-25T02:27:56.133Z,1.70
2024-03-25T02:33:03.135Z,1.70
2024-03-25T02:38:12.197Z,1.70
2024-03-25T02:43:22.420Z,1.60
2024-03-25T02:48:29.984Z,1.50
2024-03-25T02:53:37.264Z,1.50
2024-03-25T02:58:44.245Z,1.30
2024-03-25T03:03:51.160Z,1.40
2024-03-25T03:08:58.635Z,1.30
2024-03-25T03:14:05.830Z,1.40
2024-03-25T03:19:12.955Z,1.50
2024-03-25T03:24:20.396Z,1.50
2024-03-25T03:29:27.523Z,1.60
2024-03-25T03:34:34.709Z,1.70
2024-03-25T03:39:42.087Z,1.90
2024-03-25T03:44:49.039Z,1.80
2024-03-25T03:49:56.083Z,1.70
2024-03-25T03:55:03.315Z,1.60
2024-03-25T04:00:13.136Z,1.60
2024-03-25T04:05:19.982Z,1.80
2024-03-25T04:10:28.849Z,1.90
2024-03-25T04:15:39.560Z,2.00
2024-03-25T04:20:46.689Z,2.00
2024-03-25T04:25:54.705Z,1.90
2024-03-25T04:31:01.882Z,2.00
2024-03-25T04:36:09.178Z,2.20
2024-03-25T04:41:16.796Z,2.10
2024-03-25T04:46:23.750Z,2.00
2024-03-25T04:51:31.100Z,2.00
2024-03-25T04:56:38.310Z,2.10
2024-03-25T05:01:45.180Z,2.20
2024-03-25T05:06:51.900Z,2.20
2024-03-25T05:11:58.673Z,2.40
2024-03-25T05:17:07.114Z,2.50
2024-03-25T05:22:15.045Z,2.50
2024-03-25T05:27:22.099Z,2.50
2024-03-25T05:32:29.107Z,2.40
2024-03-25T05:37:37.427Z,2.30
2024-03-25T05:42:48.916Z,2.20
2024-03-25T05:47:55.834Z,2.30
2024-03-25T05:53:02.675Z,2.30
2024-03-25T05:58:10.179Z,2.20
2024-03-25T06:03:17.668Z,2.40
2024-03-25T06:08:26.117Z,2.50
2024-03-25T06:13:33.419Z,2.50
2024-03-25T06:18:41.558Z,2.50
2024-03-25T06:23:48.451Z,2.60
2024-03-25T06:28:55.625Z,2.80
2024-03-25T06:34:19.107Z,2.70
2024-03-25T06:39:25.857Z,2.80
2024-03-25T06:44:32.873Z,2.90
2024-03-25T06:49:39.713Z,3.00
2024-03-25T06:54:46.592Z,3.00
2024-03-25T06:59:53.633Z,2.90
2024-03-25T07:05:00.579Z,2.90
2024-03-25T07:10:08.040Z,3.00
2024-03-25T07:15:17.365Z,3.10
2024-03-25T07:20:24.582Z,3.40
2024-03-25T07:25:31.821Z,3.50
2024-03-25T07:30:38.828Z,3.70
2024-03-25T07:35:47.022Z,3.80
2024-03-25T07:40:54.398Z,4.00
2024-03-25T07:46:01.631Z,4.00
2024-03-25T07:51:08.482Z,4.30
2024-03-25T07:56:15.561Z,4.30
2024-03-25T08:01:22.736Z,4.50
2024-03-25T08:06:29.754Z,4.90
2024-03-25T08:11:37.045Z,4.80
2024-03-25T08:16:45.031Z,5.00
2024-03-25T08:21:51.836Z,5.20
2024-03-25T08:26:58.734Z,5.60
2024-03-25T08:32:05.896Z,6.10
2024-03-25T08:37:12.855Z,6.80
2024-03-25T08:42:19.610Z,6.50
2024-03-25T08:47:26.813Z,6.50
2024-03-25T08:52:33.766Z,7.10
2024-03-25T08:57:40.978Z,8.10
2024-03-25T09:02:47.822Z,8.60
2024-03-25T09:07:55.942Z,8.80
2024-03-25T09:13:03.098Z,8.70
2024-03-25T09:18:09.968Z,8.20
2024-03-25T09:23:17.076Z,8.40
2024-03-25T09:28:24.199Z,9.30
2024-03-25T09:33:31.752Z,8.60
2024-03-25T09:38:38.663Z,9.60
2024-03-25T09:43:49.038Z,9.80
2024-03-25T09:48:59.334Z,9.10
2024-03-25T09:54:06.276Z,8.60
2024-03-25T09:59:13.873Z,8.30
2024-03-25T10:04:21.366Z,9.50
2024-03-25T10:09:28.919Z,9.10
2024-03-25T10:14:36.306Z,8.90
2024-03-25T10:19:43.236Z,8.20
2024-03-25T10:24:52.466Z,9.50
2024-03-25T10:30:00.729Z,8.90
2024-03-25T10:35:09.059Z,8.50
2024-03-25T10:40:16.314Z,8.50
2024-03-25T10:45:23.303Z,8.70
2024-03-25T10:50:32.622Z,9.30
2024-03-25T10:55:41.152Z,8.90
2024-03-25T11:00:49.205Z,7.70
2024-03-25T11:05:57.317Z,7.50
2024-03-25T11:11:04.336Z,8.20
2024-03-25T11:16:13.770Z,8.30
2024-03-25T11:21:27.450Z,8.10
2024-03-25T11:26:36.332Z,7.80
2024-03-25T11:31:44.015Z,8.40
2024-03-25T11:36:50.971Z,9.10
2024-03-25T11:41:59.066Z,9.50
2024-03-25T11:47:08.742Z,9.20
2024-03-25T11:52:19.173Z,8.80
2024-03-25T11:57:27.695Z,8.70
2024-03-25T12:02:36.485Z,9.90
2024-03-25T12:07:43.690Z,9.50
2024-03-25T12:12:52.196Z,9.30
2024-03-25T12:17:59.909Z,10.20
2024-03-25T12:23:08.025Z,10.90
2024-03-25T12:28:15.893Z,11.10
2024-03-25T12:33:23.054Z,11.70
2024-03-25T12:38:33.230Z,11.80
2024-03-25T12:43:46.029Z,11.10
2024-03-25T12:48:55.932Z,10.30
2024-03-25T12:54:03.024Z,10.10
2024-03-25T12:59:09.821Z,10.40
2024-03-25T13:04:17.187Z,11.10
2024-03-25T13:09:24.800Z,10.30
2024-03-25T13:14:33.719Z,10.70
2024-03-25T13:19:40.664Z,10.80
2024-03-25T13:24:47.446Z,10.80
2024-03-25T13:29:56.332Z,10.50
2024-03-25T13:35:03.366Z,10.60
2024-03-25T13:40:12.936Z,10.30
2024-03-25T13:45:19.778Z,10.40
2024-03-25T13:50:27.115Z,10.00
2024-03-25T13:55:34.388Z,9.70
2024-03-25T14:00:41.193Z,9.70
2024-03-25T14:05:48.009Z,9.50
2024-03-25T14:11:05.856Z,9.50
2024-03-25T14:16:12.701Z,9.40
2024-03-25T14:21:19.569Z,9.10
2024-03-25T14:26:26.345Z,9.10
2024-03-25T14:31:33.111Z,9.20
2024-03-25T14:36:39.949Z,9.10
2024-03-25T14:41:47.169Z,9.10
2024-03-25T14:46:54.558Z,9.00
2024-03-25T14:52:02.044Z,9.30
2024-03-25T14:57:08.900Z,9.50
2024-03-25T15:02:16.225Z,9.60
2024-03-25T15:07:23.064Z,9.80
2024-03-25T15:12:29.830Z,9.80
2024-03-25T15:17:37.208Z,9.60
2024-03-25T15:22:45.651Z,9.70
2024-03-25T15:27:52.720Z,9.40
2024-03-25T15:33:00.076Z,9.40
2024-03-25T15:38:07.206Z,9.40
2024-03-25T15:43:15.506Z,9.40
2024-03-25T15:48:22.604Z,9.10
2024-03-25T15:53:29.802Z,9.40
2024-03-25T15:58:36.830Z,9.50
2024-03-25T16:03:43.947Z,9.90
2024-03-25T16:08:50.910Z,9.90
2024-03-25T16:13:59.197Z,9.90
2024-03-25T16:19:05.966Z,9.90
2024-03-25T16:24:12.876Z,9.90
2024-03-25T16:29:20.980Z,9.70
2024-03-25T16:34:28.665Z,9.60
2024-03-25T16:39:36.592Z,9.40
2024-03-25T16:44:44.081Z,9.20
2024-03-25T16:49:51.209Z,9.20
2024-03-25T16:54:58.385Z,9.00
2024-03-25T17:00:05.978Z,8.70
2024-03-25T17:05:13.168Z,8.70
2024-03-25T17:10:20.024Z,8.50
2024-03-25T17:15:27.125Z,8.20
2024-03-25T17:20:34.576Z,8.00
2024-03-25T17:25:41.667Z,7.70
2024-03-25T17:30:48.911Z,7.70
2024-03-25T17:35:56.143Z,7.50
2024-03-25T17:41:04.363Z,7.30
2024-03-25T17:46:11.121Z,7.20
2024-03-25T17:51:17.852Z,7.10
2024-03-25T17:56:24.904Z,7.00
2024-03-25T18:01:33.453Z,6.90
2024-03-25T18:06:40.393Z,6.80
2024-03-25T18:11:47.405Z,6.70
2024-03-25T18:16:54.570Z,6.60
2024-03-25T18:22:01.488Z,6.40
2024-03-25T18:27:08.694Z,6.10
2024-03-25T18:32:15.921Z,5.90
2024-03-25T18:37:22.703Z,6.00
2024-03-25T18:42:29.492Z,6.00
2024-03-25T18:47:36.565Z,6.00
2024-03-25T18:52:44.945Z,5.60
2024-03-25T18:57:51.769Z,5.70
2024-03-25T19:02:58.831Z,5.70
2024-03-25T19:08:06.245Z,5.80
2024-03-25T19:13:13.029Z,6.00
2024-03-25T19:18:20.083Z,6.00
2024-03-25T19:23:27.054Z,6.00
2024-03-25T19:28:34.244Z,6.00
2024-03-25T19:33:41.603Z,5.90
2024-03-25T19:38:48.557Z,5.90
2024-03-25T19:43:55.715Z,5.80
2024-03-25T19:49:03.242Z,5.80
2024-03-25T19:54:10.182Z,5.70
2024-03-25T19:59:17.163Z,5.70
2024-03-25T20:04:23.913Z,5.70
2024-03-25T20:09:31.390Z,5.70
2024-03-25T20:14:39.308Z,5.70
2024-03-25T20:19:46.439Z,5.60
2024-03-25T20:24:53.314Z,5.40
2024-03-25T20:30:07.331Z,5.20
2024-03-25T20:35:17.015Z,5.10
2024-03-25T20:40:24.244Z,5.10
2024-03-25T20:45:31.493Z,5.10
2024-03-25T20:50:39.208Z,5.40
2024-03-25T20:55:46.183Z,5.40
2024-03-25T21:00:53.442Z,5.50
2024-03-25T21:06:06.062Z,5.40
2024-03-25T21:11:13.260Z,5.30
2024-03-25T21:16:20.779Z,5.20
2024-03-25T21:21:27.608Z,5.20
2024-03-25T21:26:34.741Z,5.00
2024-03-25T21:31:42.342Z,5.00
2024-03-25T21:36:49.879Z,5.10
2024-03-25T21:41:57.439Z,5.10
2024-03-25T21:47:06.637Z,4.90
2024-03-25T21:52:13.779Z,4.70
2024-03-25T21:57:21.848Z,4.60
2024-03-25T22:02:29.051Z,4.50
2024-03-25T22:07:38.215Z,4.40
2024-03-25T22:12:45.060Z,4.40
2024-03-25T22:17:52.390Z,4.40
2024-03-25T22:22:59.435Z,4.30
2024-03-25T22:28:06.561Z,4.10
2024-03-25T22:33:13.996Z,4.30
2024-03-25T22:38:21.001Z,4.20
2024-03-25T22:43:29.289Z,4.00
2024-03-25T22:48:36.471Z,3.90
2024-03-25T22:53:43.902Z,3.90
2024-03-25T22:58:50.993Z,3.90
2024-03-25T23:03:58.079Z,3.80
2024-03-25T23:09:04.963Z,3.80
2024-03-25T23:14:12.484Z,3.80
2024-03-25T23:19:19.476Z,3.60
2024-03-25T23:24:26.433Z,3.70
2024-03-25T23:29:33.780Z,3.80
2024-03-25T23:34:41.246Z,3.80
2024-03-25T23:39:48.391Z,3.90
2024-03-25T23:44:55.326Z,3.60
2024-03-25T23:50:03.488Z,3.40
2024-03-25T23:55:11.265Z,3.50
